AirNav   ATP
 
 1252 users online  

83Q Port of Poulsbo Marina Moorage Seaplane Base
Poulsbo, Washington, USA

GOING TO POULSBO?


FAA INFORMATION EFFECTIVE 20 JULY 2017

Location

FAA Identifier: 83Q
Lat/Long: 47-43-15.5000N / 122-38-31.5000W
47-43.258333N / 122-38.525000W
47.7209722 / -122.6420833
(estimated)
Elevation: 0 ft. / 0 m (estimated)
Variation: 20E (1985)
Time zone: UTC -7 (UTC -8 during Standard Time)
Zip code: 98370

Seaplane Base Operations

Seaplane Base use: Open to the public
Activation date: 02/1987
Control tower: no
ARTCC: SEATTLE CENTER
FSS: SEATTLE FLIGHT SERVICE STATION
NOTAMs facility: SEA (NOTAM-D service available)
Attendance: 0800-1600
Segmented circle: no

Seaplane Base Communications

CTAF: 122.9
WX AWOS-3PT at PWT (15 nm S): 121.2 (360-674-2811)
WX ASOS at BFI (18 nm SE): PHONE 206-763-6904
WX ASOS at PAE (18 nm NE): PHONE 425-355-6192

Nearby radio navigation aids

VOR radial/distance  VOR name  Freq  Var
PAEr211/18.9PAINE VOR/DME110.6020E
SEAr303/21.8SEATTLE VORTAC116.8019E
CVVr155/31.6PENN COVE VOR/DME117.2019E
TCMr334/35.1MCCHORD VORTAC109.6015E

 
NDB name  Hdg/Dist  Freq  Var  ID
NOLLA282/11.536215EBF -... ..-.
PARRK295/17.728115EHPK .... .--. -.-
RENTON291/22.035317ERNT .-. -. -
MASON COUNTY013/33.634819EMNC -- -. -.-.
GRAYE341/34.321616EGRF --. .-. ..-.

Seaplane Base Services

Runway Information

Runway 13/31

Dimensions: 12000 x 4000 ft. / 3658 x 1219 m
Surface: water
RUNWAY 13  RUNWAY 31
Latitude: 47-44.078295N47-42.438707N
Longitude: 122-39.340305W122-37.710445W
Traffic pattern: leftleft
Runway heading: 126 magnetic, 146 true306 magnetic, 326 true

Seaplane Base Ownership and Management from official FAA records

Ownership: Publicly-owned
Owner: PORT OF POULSBO
PO BOX 732
POULSBO, WA 98370
Phone 360-779-9905
EXTENSION 4
Manager: BRAD MILLER
PO BOX 732
POULSBO, WA 98370
Phone 360-779-9905

Seaplane Base Operational Statistics

Aircraft operations: avg 25/month *
100% transient general aviation
* for 12-month period ending 31 December 2014

Additional Remarks

ORANGE BUOY 100 FT SW OF TSNT DOCK MARKS LOW TIDE ROCKS.
DOCK NOT ACCESSIBLE DURING -2 FT OR GREATER LOW TIDES.
DOCK CLOSED 3RD WEEKEND IN MAY AND JULY 3RD.

Instrument Procedures

There are no published instrument procedures at 83Q.

Some nearby airports with instrument procedures:

KPWT - Bremerton National Airport (15 nm S)
KBFI - Boeing Field/King County International Airport (18 nm SE)
KPAE - Snohomish County Airport (Paine Field) (18 nm NE)
KSEA - Seattle-Tacoma International Airport (21 nm SE)
0S9 - Jefferson County International Airport (21 nm N)
 
Loc | Ops | Rwys | IFR | FBO | Links
Com | Nav | Svcs | Stats | Notes


 
Area around 83Q (Port of Poulsbo Marina Moorage Seaplane Base)
 
Road maps at: MapQuest Bing Google
 
Aerial photo
WARNING: Photo may not be current or correct
Aerial photo of 83Q (Port of Poulsbo Marina Moorage Seaplane Base)
Do you have a better or more recent aerial photo of Port of Poulsbo Marina Moorage Seaplane Base that you would like to share? If so, please send us your photo.

 
Sectional chart

 
Airport distance calculator
Flying to Port of Poulsbo Marina Moorage Seaplane Base? Find the distance to fly.

From to 83Q

Sunrise and sunset
Times for 21-Jul-2017
 Local
(UTC-7)
 Zulu
(UTC)
Morning civil twilight04:5711:57
Sunrise05:3512:35
Sunset20:5803:58
Evening civil twilight21:3604:36

Current date and time
Zulu (UTC)  21-Jul-2017 21:31:09
Local (UTC-7)  21-Jul-2017 14:31:09
 
METAR
KPWT 
14nm S 
212056Z AUTO VRB03KT 10SM FEW100 22/11 A3015 RMK AO2 SLPNO T02220111 58006
KBFI 
17nm SE 
212053Z 00000KT 10SM SCT100 BKN150 23/12 A3014 RMK AO2 SLP204 T02280122 58005
KPAE 
19nm NE 
212053Z 20007KT 10SM BKN100 22/10 A3016 RMK AO2 SLP210 T02170100 58003
KSEA 
21nm SE 
212053Z 22006KT 10SM FEW035 BKN120 BKN170 23/11 A3015 RMK AO2 SLP214 ACSL DSNT SE T02280111 58005
K0S9 
21nm N 
212115Z AUTO VRB04KT 10SM OVC090 20/13 A3015 RMK AO2
KRNT 
22nm SE 
212053Z 32006KT 10SM OVC100 24/12 A3013 RMK AO2 SLP207 T02440122 58006
KTIW 
27nm S 
212053Z 31006KT 10SM SCT039 23/11 A3015 RMK AO2 SLP207 T02280106 58007
TAF
KBFI 
17nm SE 
211738Z 2118/2218 21004KT P6SM FEW025 SCT120 BKN200 FM212100 25004KT P6SM BKN120 BKN200 FM220100 VRB03KT P6SM SCT100 BKN200 FM220900 15004KT P6SM BKN050 OVC100 FM221400 16006KT P6SM SCT030 BKN040 OVC080
KPAE 
19nm NE 
211738Z 2118/2218 25004KT P6SM FEW020 BKN150 FM212200 30005KT P6SM BKN120 FM220600 12004KT P6SM OVC080 FM221000 17007KT P6SM SCT045 OVC060 FM221500 18007KT P6SM SCT030 OVC040
NOTAMs
Click for the latest NOTAMs
NOTAMs are issued by the DoD/FAA and will open in a separate window not controlled by AirNav.

 

 
 

Would you like to see your business listed on this page?

 If your business provides an interesting product or service to pilots, flight crews, aircraft, or users of the Port of Poulsbo Marina Moorage Seaplane Base, you should consider listing it here.  To start the listing process, click on the button below
 
Add a business
 

Other Pages about Port of Poulsbo Marina Moorage Seaplane Base

Update a link
 
Copyright © AirNav, LLC. All rights reserved. Privacy Policy  Contact